sensor_id;sensor_type;location;lat;lon;timestamp;temperature;humidity
14061;DHT22;7105;43.616;1.434;2023-04-25T00:01:01;14.40;99.90
14061;DHT22;7105;43.616;1.434;2023-04-25T00:03:27;14.40;99.90
14061;DHT22;7105;43.616;1.434;2023-04-25T00:05:54;14.40;99.90
14061;DHT22;7105;43.616;1.434;2023-04-25T00:08:22;14.30;99.90
14061;DHT22;7105;43.616;1.434;2023-04-25T00:10:48;14.30;99.90
14061;DHT22;7105;43.616;1.434;2023-04-25T00:13:14;14.40;99.90
14061;DHT22;7105;43.616;1.434;2023-04-25T00:15:40;14.40;99.90
14061;DHT22;7105;43.616;1.434;2023-04-25T00:18:07;14.40;99.90
14061;DHT22;7105;43.616;1.434;2023-04-25T00:20:33;14.30;99.90
14061;DHT22;7105;43.616;1.434;2023-04-25T00:22:58;14.30;99.90
14061;DHT22;7105;43.616;1.434;2023-04-25T00:25:24;14.30;99.90
14061;DHT22;7105;43.616;1.434;2023-04-25T00:27:50;14.30;99.90
14061;DHT22;7105;43.616;1.434;2023-04-25T00:30:16;14.30;99.90
14061;DHT22;7105;43.616;1.434;2023-04-25T00:32:41;14.20;99.90
14061;DHT22;7105;43.616;1.434;2023-04-25T00:35:08;14.10;99.90
14061;DHT22;7105;43.616;1.434;2023-04-25T00:37:34;14.10;99.90
14061;DHT22;7105;43.616;1.434;2023-04-25T00:40:00;14.10;99.90
14061;DHT22;7105;43.616;1.434;2023-04-25T00:42:26;14.20;99.90
14061;DHT22;7105;43.616;1.434;2023-04-25T00:44:52;14.20;99.90
14061;DHT22;7105;43.616;1.434;2023-04-25T00:47:18;14.30;99.90
14061;DHT22;7105;43.616;1.434;2023-04-25T00:49:44;14.30;99.90
14061;DHT22;7105;43.616;1.434;2023-04-25T00:52:11;14.20;99.90
14061;DHT22;7105;43.616;1.434;2023-04-25T00:54:37;14.20;99.90
14061;DHT22;7105;43.616;1.434;2023-04-25T00:57:03;14.20;99.90
14061;DHT22;7105;43.616;1.434;2023-04-25T00:59:29;14.20;99.90
14061;DHT22;7105;43.616;1.434;2023-04-25T01:01:56;14.20;99.90
14061;DHT22;7105;43.616;1.434;2023-04-25T01:04:22;14.20;99.90
14061;DHT22;7105;43.616;1.434;2023-04-25T01:06:48;14.20;99.90
14061;DHT22;7105;43.616;1.434;2023-04-25T01:09:13;14.30;99.90
14061;DHT22;7105;43.616;1.434;2023-04-25T01:11:40;14.30;99.90
14061;DHT22;7105;43.616;1.434;2023-04-25T01:14:06;14.10;99.90
14061;DHT22;7105;43.616;1.434;2023-04-25T01:16:32;14.10;99.90
14061;DHT22;7105;43.616;1.434;2023-04-25T01:18:59;14.20;99.90
14061;DHT22;7105;43.616;1.434;2023-04-25T01:21:25;14.10;99.90
14061;DHT22;7105;43.616;1.434;2023-04-25T01:23:53;14.20;99.90
14061;DHT22;7105;43.616;1.434;2023-04-25T01:26:19;14.30;99.90
14061;DHT22;7105;43.616;1.434;2023-04-25T01:28:47;14.30;99.90
14061;DHT22;7105;43.616;1.434;2023-04-25T01:31:13;14.20;99.90
14061;DHT22;7105;43.616;1.434;2023-04-25T01:33:39;14.30;99.90
14061;DHT22;7105;43.616;1.434;2023-04-25T01:36:05;14.30;99.90
14061;DHT22;7105;43.616;1.434;2023-04-25T01:38:31;14.30;99.90
14061;DHT22;7105;43.616;1.434;2023-04-25T01:40:57;14.30;99.90
14061;DHT22;7105;43.616;1.434;2023-04-25T01:43:23;14.30;99.90
14061;DHT22;7105;43.616;1.434;2023-04-25T01:45:49;14.30;99.90
14061;DHT22;7105;43.616;1.434;2023-04-25T01:48:15;14.30;99.90
14061;DHT22;7105;43.616;1.434;2023-04-25T01:50:41;14.30;99.90
14061;DHT22;7105;43.616;1.434;2023-04-25T01:53:09;14.30;99.90
14061;DHT22;7105;43.616;1.434;2023-04-25T01:55:36;14.30;99.90
14061;DHT22;7105;43.616;1.434;2023-04-25T01:58:02;14.30;99.90
14061;DHT22;7105;43.616;1.434;2023-04-25T02:00:29;14.30;99.90
14061;DHT22;7105;43.616;1.434;2023-04-25T02:02:58;14.30;99.90
14061;DHT22;7105;43.616;1.434;2023-04-25T02:05:23;14.30;99.90
14061;DHT22;7105;43.616;1.434;2023-04-25T02:07:49;14.30;99.90
14061;DHT22;7105;43.616;1.434;2023-04-25T02:10:15;14.30;99.90
14061;DHT22;7105;43.616;1.434;2023-04-25T02:12:40;14.30;99.90
14061;DHT22;7105;43.616;1.434;2023-04-25T02:15:06;14.40;99.90
14061;DHT22;7105;43.616;1.434;2023-04-25T02:17:32;14.40;99.90
14061;DHT22;7105;43.616;1.434;2023-04-25T02:19:59;14.30;99.90
14061;DHT22;7105;43.616;1.434;2023-04-25T02:22:24;14.40;99.90
14061;DHT22;7105;43.616;1.434;2023-04-25T02:24:52;14.40;99.90
14061;DHT22;7105;43.616;1.434;2023-04-25T02:27:18;14.30;99.90
14061;DHT22;7105;43.616;1.434;2023-04-25T02:29:43;14.30;99.90
14061;DHT22;7105;43.616;1.434;2023-04-25T02:32:09;14.30;99.90
14061;DHT22;7105;43.616;1.434;2023-04-25T02:34:35;14.30;99.90
14061;DHT22;7105;43.616;1.434;2023-04-25T02:37:00;14.30;99.90
14061;DHT22;7105;43.616;1.434;2023-04-25T02:39:26;14.30;99.90
14061;DHT22;7105;43.616;1.434;2023-04-25T02:41:52;14.30;99.90
14061;DHT22;7105;43.616;1.434;2023-04-25T02:44:18;14.30;99.90
14061;DHT22;7105;43.616;1.434;2023-04-25T02:46:43;14.30;99.90
14061;DHT22;7105;43.616;1.434;2023-04-25T02:49:09;14.30;99.90
14061;DHT22;7105;43.616;1.434;2023-04-25T02:51:35;14.30;99.90
14061;DHT22;7105;43.616;1.434;2023-04-25T02:54:00;14.30;99.90
14061;DHT22;7105;43.616;1.434;2023-04-25T02:56:26;14.30;99.90
14061;DHT22;7105;43.616;1.434;2023-04-25T02:58:52;14.40;99.90
14061;DHT22;7105;43.616;1.434;2023-04-25T03:01:18;14.40;99.90
14061;DHT22;7105;43.616;1.434;2023-04-25T03:03:44;14.40;99.90
14061;DHT22;7105;43.616;1.434;2023-04-25T03:06:10;14.40;99.90
14061;DHT22;7105;43.616;1.434;2023-04-25T03:08:35;14.40;99.90
14061;DHT22;7105;43.616;1.434;2023-04-25T03:11:01;14.40;99.90
14061;DHT22;7105;43.616;1.434;2023-04-25T03:13:27;14.40;99.90
14061;DHT22;7105;43.616;1.434;2023-04-25T03:15:54;14.40;99.90
14061;DHT22;7105;43.616;1.434;2023-04-25T03:18:20;14.40;99.90
14061;DHT22;7105;43.616;1.434;2023-04-25T03:20:46;14.40;99.90
14061;DHT22;7105;43.616;1.434;2023-04-25T03:23:12;14.40;99.90
14061;DHT22;7105;43.616;1.434;2023-04-25T03:25:37;14.40;99.90
14061;DHT22;7105;43.616;1.434;2023-04-25T03:28:03;14.40;99.90
14061;DHT22;7105;43.616;1.434;2023-04-25T03:30:29;14.40;99.90
14061;DHT22;7105;43.616;1.434;2023-04-25T03:32:54;14.30;99.90
14061;DHT22;7105;43.616;1.434;2023-04-25T03:35:20;14.30;99.90
14061;DHT22;7105;43.616;1.434;2023-04-25T03:37:46;14.30;99.90
14061;DHT22;7105;43.616;1.434;2023-04-25T03:40:12;14.30;99.90
14061;DHT22;7105;43.616;1.434;2023-04-25T03:42:37;14.30;99.90
14061;DHT22;7105;43.616;1.434;2023-04-25T03:45:03;14.30;99.90
14061;DHT22;7105;43.616;1.434;2023-04-25T03:47:29;14.30;99.90
14061;DHT22;7105;43.616;1.434;2023-04-25T03:49:55;14.30;99.90
14061;DHT22;7105;43.616;1.434;2023-04-25T03:52:20;14.40;99.90
14061;DHT22;7105;43.616;1.434;2023-04-25T03:54:46;14.30;99.90
14061;DHT22;7105;43.616;1.434;2023-04-25T03:57:12;14.30;99.90
14061;DHT22;7105;43.616;1.434;2023-04-25T03:59:37;14.30;99.90
14061;DHT22;7105;43.616;1.434;2023-04-25T04:02:03;14.30;99.90
14061;DHT22;7105;43.616;1.434;2023-04-25T04:04:29;14.30;99.90
14061;DHT22;7105;43.616;1.434;2023-04-25T04:06:55;14.30;99.90
14061;DHT22;7105;43.616;1.434;2023-04-25T04:09:21;14.20;99.90
14061;DHT22;7105;43.616;1.434;2023-04-25T04:11:47;14.20;99.90
14061;DHT22;7105;43.616;1.434;2023-04-25T04:14:12;14.20;99.90
14061;DHT22;7105;43.616;1.434;2023-04-25T04:16:38;14.20;99.90
14061;DHT22;7105;43.616;1.434;2023-04-25T04:19:04;14.20;99.90
14061;DHT22;7105;43.616;1.434;2023-04-25T04:21:30;14.20;99.90
14061;DHT22;7105;43.616;1.434;2023-04-25T04:23:57;14.20;99.90
14061;DHT22;7105;43.616;1.434;2023-04-25T04:26:23;14.20;99.90
14061;DHT22;7105;43.616;1.434;2023-04-25T04:28:49;14.20;99.90
14061;DHT22;7105;43.616;1.434;2023-04-25T04:31:23;14.30;99.90
14061;DHT22;7105;43.616;1.434;2023-04-25T04:33:49;14.20;99.90
14061;DHT22;7105;43.616;1.434;2023-04-25T04:36:15;14.20;99.90
14061;DHT22;7105;43.616;1.434;2023-04-25T04:38:41;14.20;99.90
14061;DHT22;7105;43.616;1.434;2023-04-25T04:41:07;14.20;99.90
14061;DHT22;7105;43.616;1.434;2023-04-25T04:43:33;14.20;99.90
14061;DHT22;7105;43.616;1.434;2023-04-25T04:46:02;14.20;99.90
14061;DHT22;7105;43.616;1.434;2023-04-25T04:48:30;14.20;99.90
14061;DHT22;7105;43.616;1.434;2023-04-25T04:50:58;14.20;99.90
14061;DHT22;7105;43.616;1.434;2023-04-25T04:53:24;14.20;99.90
14061;DHT22;7105;43.616;1.434;2023-04-25T04:55:49;14.20;99.90
14061;DHT22;7105;43.616;1.434;2023-04-25T04:58:15;14.30;99.90
14061;DHT22;7105;43.616;1.434;2023-04-25T05:00:41;14.30;99.90
14061;DHT22;7105;43.616;1.434;2023-04-25T05:03:06;14.30;99.90
14061;DHT22;7105;43.616;1.434;2023-04-25T05:05:32;14.30;99.90
14061;DHT22;7105;43.616;1.434;2023-04-25T05:07:58;14.30;99.90
14061;DHT22;7105;43.616;1.434;2023-04-25T05:10:25;14.30;99.90
14061;DHT22;7105;43.616;1.434;2023-04-25T05:12:51;14.40;99.90
14061;DHT22;7105;43.616;1.434;2023-04-25T05:15:17;14.40;99.90
14061;DHT22;7105;43.616;1.434;2023-04-25T05:17:42;14.40;99.90
14061;DHT22;7105;43.616;1.434;2023-04-25T05:20:08;14.30;99.90
14061;DHT22;7105;43.616;1.434;2023-04-25T05:22:35;14.40;99.90
14061;DHT22;7105;43.616;1.434;2023-04-25T05:25:01;14.40;99.90
14061;DHT22;7105;43.616;1.434;2023-04-25T05:27:26;14.40;99.90
14061;DHT22;7105;43.616;1.434;2023-04-25T05:29:52;14.40;99.90
14061;DHT22;7105;43.616;1.434;2023-04-25T05:32:18;14.50;99.90
14061;DHT22;7105;43.616;1.434;2023-04-25T05:34:43;14.60;99.90
14061;DHT22;7105;43.616;1.434;2023-04-25T05:37:09;14.50;99.90
14061;DHT22;7105;43.616;1.434;2023-04-25T05:39:35;14.50;99.90
14061;DHT22;7105;43.616;1.434;2023-04-25T05:42:01;14.50;99.90
14061;DHT22;7105;43.616;1.434;2023-04-25T05:44:27;14.50;99.90
14061;DHT22;7105;43.616;1.434;2023-04-25T05:46:53;14.50;99.90
14061;DHT22;7105;43.616;1.434;2023-04-25T05:49:19;14.50;99.90
14061;DHT22;7105;43.616;1.434;2023-04-25T05:51:45;14.60;99.90
14061;DHT22;7105;43.616;1.434;2023-04-25T05:54:10;14.60;99.90
14061;DHT22;7105;43.616;1.434;2023-04-25T05:56:36;14.70;99.90
14061;DHT22;7105;43.616;1.434;2023-04-25T05:59:01;14.70;99.90
14061;DHT22;7105;43.616;1.434;2023-04-25T06:01:28;14.70;99.90
14061;DHT22;7105;43.616;1.434;2023-04-25T06:03:54;14.70;99.90
14061;DHT22;7105;43.616;1.434;2023-04-25T06:06:19;14.70;99.90
14061;DHT22;7105;43.616;1.434;2023-04-25T06:08:45;14.80;99.90
14061;DHT22;7105;43.616;1.434;2023-04-25T06:11:11;14.80;99.90
14061;DHT22;7105;43.616;1.434;2023-04-25T06:13:36;14.80;99.90
14061;DHT22;7105;43.616;1.434;2023-04-25T06:16:02;14.80;99.90
14061;DHT22;7105;43.616;1.434;2023-04-25T06:18:28;14.80;99.90
14061;DHT22;7105;43.616;1.434;2023-04-25T06:20:54;14.80;99.90
14061;DHT22;7105;43.616;1.434;2023-04-25T06:23:19;14.80;99.90
14061;DHT22;7105;43.616;1.434;2023-04-25T06:25:45;14.90;99.90
14061;DHT22;7105;43.616;1.434;2023-04-25T06:28:10;15.00;99.90
14061;DHT22;7105;43.616;1.434;2023-04-25T06:30:36;15.00;99.90
14061;DHT22;7105;43.616;1.434;2023-04-25T06:33:02;15.20;99.90
14061;DHT22;7105;43.616;1.434;2023-04-25T06:35:27;15.40;99.90
14061;DHT22;7105;43.616;1.434;2023-04-25T06:37:53;15.60;99.90
14061;DHT22;7105;43.616;1.434;2023-04-25T06:40:18;15.90;99.90
14061;DHT22;7105;43.616;1.434;2023-04-25T06:42:44;15.70;99.90
14061;DHT22;7105;43.616;1.434;2023-04-25T06:45:10;15.70;99.90
14061;DHT22;7105;43.616;1.434;2023-04-25T06:47:36;16.00;99.90
14061;DHT22;7105;43.616;1.434;2023-04-25T06:50:01;16.10;99.90
14061;DHT22;7105;43.616;1.434;2023-04-25T06:52:27;16.00;99.90
14061;DHT22;7105;43.616;1.434;2023-04-25T06:54:53;15.80;99.90
14061;DHT22;7105;43.616;1.434;2023-04-25T06:57:18;15.90;99.90
14061;DHT22;7105;43.616;1.434;2023-04-25T06:59:44;15.80;99.90
14061;DHT22;7105;43.616;1.434;2023-04-25T07:02:10;15.70;99.90
14061;DHT22;7105;43.616;1.434;2023-04-25T07:04:35;15.60;99.90
14061;DHT22;7105;43.616;1.434;2023-04-25T07:07:01;15.50;99.90
14061;DHT22;7105;43.616;1.434;2023-04-25T07:09:28;15.50;99.90
14061;DHT22;7105;43.616;1.434;2023-04-25T07:11:55;15.40;99.90
14061;DHT22;7105;43.616;1.434;2023-04-25T07:14:22;15.50;99.90
14061;DHT22;7105;43.616;1.434;2023-04-25T07:16:47;15.40;99.90
14061;DHT22;7105;43.616;1.434;2023-04-25T07:19:13;15.30;99.90
14061;DHT22;7105;43.616;1.434;2023-04-25T07:21:39;14.80;99.90
14061;DHT22;7105;43.616;1.434;2023-04-25T07:24:05;14.00;99.90
14061;DHT22;7105;43.616;1.434;2023-04-25T07:26:31;13.60;99.90
14061;DHT22;7105;43.616;1.434;2023-04-25T07:28:56;13.30;99.90
14061;DHT22;7105;43.616;1.434;2023-04-25T07:31:22;13.20;99.90
14061;DHT22;7105;43.616;1.434;2023-04-25T07:33:48;13.10;99.90
14061;DHT22;7105;43.616;1.434;2023-04-25T07:36:14;13.10;99.90
14061;DHT22;7105;43.616;1.434;2023-04-25T07:38:41;13.10;99.90
14061;DHT22;7105;43.616;1.434;2023-04-25T07:41:06;13.20;99.90
14061;DHT22;7105;43.616;1.434;2023-04-25T07:43:32;13.20;99.90
14061;DHT22;7105;43.616;1.434;2023-04-25T07:45:58;13.20;99.90
14061;DHT22;7105;43.616;1.434;2023-04-25T07:48:23;13.10;99.90
14061;DHT22;7105;43.616;1.434;2023-04-25T07:50:49;13.20;99.90
14061;DHT22;7105;43.616;1.434;2023-04-25T07:53:15;13.30;99.90
14061;DHT22;7105;43.616;1.434;2023-04-25T07:55:41;13.10;99.90
14061;DHT22;7105;43.616;1.434;2023-04-25T07:58:07;13.10;99.90
14061;DHT22;7105;43.616;1.434;2023-04-25T08:00:33;13.00;99.90
14061;DHT22;7105;43.616;1.434;2023-04-25T08:02:59;13.00;99.90
14061;DHT22;7105;43.616;1.434;2023-04-25T08:05:24;13.10;99.90
14061;DHT22;7105;43.616;1.434;2023-04-25T08:07:50;13.20;99.90
14061;DHT22;7105;43.616;1.434;2023-04-25T08:10:16;13.20;99.90
14061;DHT22;7105;43.616;1.434;2023-04-25T08:12:41;13.10;99.90
14061;DHT22;7105;43.616;1.434;2023-04-25T08:15:08;13.00;99.90
14061;DHT22;7105;43.616;1.434;2023-04-25T08:17:34;13.00;99.90
14061;DHT22;7105;43.616;1.434;2023-04-25T08:19:59;13.00;99.90
14061;DHT22;7105;43.616;1.434;2023-04-25T08:22:25;13.10;99.90
14061;DHT22;7105;43.616;1.434;2023-04-25T08:24:51;13.10;99.90
14061;DHT22;7105;43.616;1.434;2023-04-25T08:27:18;13.20;99.90
14061;DHT22;7105;43.616;1.434;2023-04-25T08:29:43;13.30;99.90
14061;DHT22;7105;43.616;1.434;2023-04-25T08:32:09;13.20;99.90
14061;DHT22;7105;43.616;1.434;2023-04-25T08:34:35;13.20;99.90
14061;DHT22;7105;43.616;1.434;2023-04-25T08:37:02;13.40;99.90
14061;DHT22;7105;43.616;1.434;2023-04-25T08:39:29;13.30;99.90
14061;DHT22;7105;43.616;1.434;2023-04-25T08:41:56;13.40;99.90
14061;DHT22;7105;43.616;1.434;2023-04-25T08:44:22;13.30;99.90
14061;DHT22;7105;43.616;1.434;2023-04-25T08:46:49;13.30;99.90
14061;DHT22;7105;43.616;1.434;2023-04-25T08:49:16;13.40;99.90
14061;DHT22;7105;43.616;1.434;2023-04-25T08:51:46;13.30;99.90
14061;DHT22;7105;43.616;1.434;2023-04-25T08:54:13;13.50;99.90
14061;DHT22;7105;43.616;1.434;2023-04-25T08:56:43;13.50;99.90
14061;DHT22;7105;43.616;1.434;2023-04-25T08:59:11;13.50;99.90
14061;DHT22;7105;43.616;1.434;2023-04-25T09:01:36;13.60;99.90
14061;DHT22;7105;43.616;1.434;2023-04-25T09:04:02;13.40;99.90
14061;DHT22;7105;43.616;1.434;2023-04-25T09:06:31;13.60;99.90
14061;DHT22;7105;43.616;1.434;2023-04-25T09:09:04;14.00;99.90
14061;DHT22;7105;43.616;1.434;2023-04-25T09:11:34;13.80;99.90
14061;DHT22;7105;43.616;1.434;2023-04-25T09:14:11;13.50;99.90
14061;DHT22;7105;43.616;1.434;2023-04-25T09:19:24;13.80;99.90
14061;DHT22;7105;43.616;1.434;2023-04-25T09:21:50;14.00;99.90
14061;DHT22;7105;43.616;1.434;2023-04-25T09:24:20;14.00;99.90
14061;DHT22;7105;43.616;1.434;2023-04-25T09:26:55;14.00;99.90
14061;DHT22;7105;43.616;1.434;2023-04-25T09:29:32;13.70;99.90
14061;DHT22;7105;43.616;1.434;2023-04-25T09:32:21;13.70;99.90
14061;DHT22;7105;43.616;1.434;2023-04-25T09:34:57;13.60;99.90
14061;DHT22;7105;43.616;1.434;2023-04-25T09:37:28;13.60;99.90
14061;DHT22;7105;43.616;1.434;2023-04-25T09:40:03;13.50;99.90
14061;DHT22;7105;43.616;1.434;2023-04-25T09:42:31;13.40;99.90
14061;DHT22;7105;43.616;1.434;2023-04-25T09:45:00;13.50;99.90
14061;DHT22;7105;43.616;1.434;2023-04-25T09:47:27;13.50;99.90
14061;DHT22;7105;43.616;1.434;2023-04-25T09:49:54;13.50;99.90
14061;DHT22;7105;43.616;1.434;2023-04-25T09:52:22;13.40;99.90
14061;DHT22;7105;43.616;1.434;2023-04-25T09:54:49;13.30;99.90
14061;DHT22;7105;43.616;1.434;2023-04-25T09:57:23;13.40;99.90
14061;DHT22;7105;43.616;1.434;2023-04-25T09:59:53;13.30;99.90
14061;DHT22;7105;43.616;1.434;2023-04-25T10:02:26;13.30;99.90
14061;DHT22;7105;43.616;1.434;2023-04-25T10:04:54;13.30;99.90
14061;DHT22;7105;43.616;1.434;2023-04-25T10:07:26;13.40;99.90
14061;DHT22;7105;43.616;1.434;2023-04-25T10:09:58;13.50;99.90
14061;DHT22;7105;43.616;1.434;2023-04-25T10:12:29;13.50;99.90
14061;DHT22;7105;43.616;1.434;2023-04-25T10:14:55;13.80;99.90
14061;DHT22;7105;43.616;1.434;2023-04-25T10:17:21;13.60;99.90
14061;DHT22;7105;43.616;1.434;2023-04-25T10:19:51;13.60;99.90
14061;DHT22;7105;43.616;1.434;2023-04-25T10:24:55;13.80;99.90
14061;DHT22;7105;43.616;1.434;2023-04-25T10:27:22;14.30;99.90
14061;DHT22;7105;43.616;1.434;2023-04-25T10:30:04;14.40;99.90
14061;DHT22;7105;43.616;1.434;2023-04-25T10:32:33;14.30;99.90
14061;DHT22;7105;43.616;1.434;2023-04-25T10:35:13;14.30;99.90
14061;DHT22;7105;43.616;1.434;2023-04-25T10:38:03;14.20;99.90
14061;DHT22;7105;43.616;1.434;2023-04-25T10:40:29;14.20;99.90
14061;DHT22;7105;43.616;1.434;2023-04-25T10:42:55;14.30;99.90
14061;DHT22;7105;43.616;1.434;2023-04-25T10:45:53;14.40;99.90
14061;DHT22;7105;43.616;1.434;2023-04-25T10:48:31;14.10;99.90
14061;DHT22;7105;43.616;1.434;2023-04-25T10:51:23;14.00;99.90
14061;DHT22;7105;43.616;1.434;2023-04-25T10:56:37;14.20;99.90
14061;DHT22;7105;43.616;1.434;2023-04-25T10:59:13;14.30;99.90
14061;DHT22;7105;43.616;1.434;2023-04-25T11:01:42;14.30;99.90
14061;DHT22;7105;43.616;1.434;2023-04-25T11:04:28;14.00;99.90
14061;DHT22;7105;43.616;1.434;2023-04-25T11:09:26;14.30;99.90
14061;DHT22;7105;43.616;1.434;2023-04-25T11:11:55;14.60;99.90
14061;DHT22;7105;43.616;1.434;2023-04-25T11:14:21;14.40;99.90
14061;DHT22;7105;43.616;1.434;2023-04-25T11:16:52;14.50;99.90
14061;DHT22;7105;43.616;1.434;2023-04-25T11:19:19;14.40;99.90
14061;DHT22;7105;43.616;1.434;2023-04-25T11:21:45;14.90;99.90
14061;DHT22;7105;43.616;1.434;2023-04-25T11:24:11;15.20;99.90
14061;DHT22;7105;43.616;1.434;2023-04-25T11:26:37;15.50;99.90
14061;DHT22;7105;43.616;1.434;2023-04-25T11:29:03;15.30;99.90
14061;DHT22;7105;43.616;1.434;2023-04-25T11:31:29;15.40;99.90
14061;DHT22;7105;43.616;1.434;2023-04-25T11:33:57;15.50;99.90
14061;DHT22;7105;43.616;1.434;2023-04-25T11:36:24;16.00;99.90
14061;DHT22;7105;43.616;1.434;2023-04-25T11:38:51;16.30;99.90
14061;DHT22;7105;43.616;1.434;2023-04-25T11:41:17;16.00;99.90
14061;DHT22;7105;43.616;1.434;2023-04-25T11:43:44;15.80;99.90
14061;DHT22;7105;43.616;1.434;2023-04-25T11:46:10;15.30;99.90
14061;DHT22;7105;43.616;1.434;2023-04-25T11:48:39;15.10;99.90
14061;DHT22;7105;43.616;1.434;2023-04-25T11:51:05;15.10;99.90
14061;DHT22;7105;43.616;1.434;2023-04-25T11:53:31;15.30;99.90
14061;DHT22;7105;43.616;1.434;2023-04-25T11:55:57;15.60;99.90
14061;DHT22;7105;43.616;1.434;2023-04-25T11:58:23;15.70;99.90
14061;DHT22;7105;43.616;1.434;2023-04-25T12:00:48;15.70;99.90
14061;DHT22;7105;43.616;1.434;2023-04-25T12:03:14;15.30;99.90
14061;DHT22;7105;43.616;1.434;2023-04-25T12:05:40;15.70;99.90
14061;DHT22;7105;43.616;1.434;2023-04-25T12:08:12;16.10;99.90
14061;DHT22;7105;43.616;1.434;2023-04-25T12:10:39;16.00;99.90
14061;DHT22;7105;43.616;1.434;2023-04-25T12:13:23;15.90;99.90
14061;DHT22;7105;43.616;1.434;2023-04-25T12:15:49;16.10;99.90
14061;DHT22;7105;43.616;1.434;2023-04-25T12:18:19;16.50;99.90
14061;DHT22;7105;43.616;1.434;2023-04-25T12:20:45;16.00;99.90
14061;DHT22;7105;43.616;1.434;2023-04-25T12:23:10;16.30;99.90
14061;DHT22;7105;43.616;1.434;2023-04-25T12:25:43;16.10;99.90
14061;DHT22;7105;43.616;1.434;2023-04-25T12:28:21;15.80;99.90
14061;DHT22;7105;43.616;1.434;2023-04-25T12:33:25;16.10;99.90
14061;DHT22;7105;43.616;1.434;2023-04-25T12:35:52;16.20;99.90
14061;DHT22;7105;43.616;1.434;2023-04-25T12:38:22;16.10;99.90
14061;DHT22;7105;43.616;1.434;2023-04-25T12:40:48;15.60;99.90
14061;DHT22;7105;43.616;1.434;2023-04-25T12:43:14;15.80;99.90
14061;DHT22;7105;43.616;1.434;2023-04-25T12:45:40;15.80;99.90
14061;DHT22;7105;43.616;1.434;2023-04-25T12:48:06;15.90;99.90
14061;DHT22;7105;43.616;1.434;2023-04-25T12:50:31;15.60;99.90
14061;DHT22;7105;43.616;1.434;2023-04-25T12:52:57;15.70;99.90
14061;DHT22;7105;43.616;1.434;2023-04-25T12:55:23;15.50;99.90
14061;DHT22;7105;43.616;1.434;2023-04-25T12:57:48;15.70;99.90
14061;DHT22;7105;43.616;1.434;2023-04-25T13:00:14;15.80;99.90
14061;DHT22;7105;43.616;1.434;2023-04-25T13:02:43;16.00;99.90
14061;DHT22;7105;43.616;1.434;2023-04-25T13:05:08;15.80;99.90
14061;DHT22;7105;43.616;1.434;2023-04-25T13:07:34;15.60;99.90
14061;DHT22;7105;43.616;1.434;2023-04-25T13:10:00;15.60;99.90
14061;DHT22;7105;43.616;1.434;2023-04-25T13:12:27;15.20;99.90
14061;DHT22;7105;43.616;1.434;2023-04-25T13:14:53;15.10;99.90
14061;DHT22;7105;43.616;1.434;2023-04-25T13:17:19;15.10;99.90
14061;DHT22;7105;43.616;1.434;2023-04-25T13:19:44;15.40;99.90
14061;DHT22;7105;43.616;1.434;2023-04-25T13:22:10;15.30;99.90
14061;DHT22;7105;43.616;1.434;2023-04-25T13:24:36;15.30;99.90
14061;DHT22;7105;43.616;1.434;2023-04-25T13:27:02;15.50;99.90
14061;DHT22;7105;43.616;1.434;2023-04-25T13:29:28;15.50;99.90
14061;DHT22;7105;43.616;1.434;2023-04-25T13:31:53;15.40;99.90
14061;DHT22;7105;43.616;1.434;2023-04-25T13:34:19;15.20;99.90
14061;DHT22;7105;43.616;1.434;2023-04-25T13:36:45;15.10;99.90
14061;DHT22;7105;43.616;1.434;2023-04-25T13:39:10;15.50;99.90
14061;DHT22;7105;43.616;1.434;2023-04-25T13:41:36;15.60;99.90
14061;DHT22;7105;43.616;1.434;2023-04-25T13:44:02;15.40;99.90
14061;DHT22;7105;43.616;1.434;2023-04-25T13:46:28;15.60;99.90
14061;DHT22;7105;43.616;1.434;2023-04-25T13:48:53;15.70;99.90
14061;DHT22;7105;43.616;1.434;2023-04-25T13:51:19;15.90;99.90
14061;DHT22;7105;43.616;1.434;2023-04-25T13:53:45;16.20;99.90
14061;DHT22;7105;43.616;1.434;2023-04-25T13:56:11;16.20;99.90
14061;DHT22;7105;43.616;1.434;2023-04-25T13:58:37;15.90;99.90
14061;DHT22;7105;43.616;1.434;2023-04-25T14:01:03;15.90;99.90
14061;DHT22;7105;43.616;1.434;2023-04-25T14:03:29;15.50;99.90
14061;DHT22;7105;43.616;1.434;2023-04-25T14:05:55;15.10;99.90
14061;DHT22;7105;43.616;1.434;2023-04-25T14:08:21;15.00;99.90
14061;DHT22;7105;43.616;1.434;2023-04-25T14:10:46;15.10;99.90
14061;DHT22;7105;43.616;1.434;2023-04-25T14:13:12;14.90;99.90
14061;DHT22;7105;43.616;1.434;2023-04-25T14:15:38;14.90;99.90
14061;DHT22;7105;43.616;1.434;2023-04-25T14:18:04;15.30;99.90
14061;DHT22;7105;43.616;1.434;2023-04-25T14:20:30;15.40;99.90
14061;DHT22;7105;43.616;1.434;2023-04-25T14:22:56;15.30;99.90
14061;DHT22;7105;43.616;1.434;2023-04-25T14:25:23;15.30;99.90
14061;DHT22;7105;43.616;1.434;2023-04-25T14:27:49;15.30;99.90
14061;DHT22;7105;43.616;1.434;2023-04-25T14:30:19;15.50;99.90
14061;DHT22;7105;43.616;1.434;2023-04-25T14:32:45;15.40;99.90
14061;DHT22;7105;43.616;1.434;2023-04-25T14:35:11;15.60;99.90
14061;DHT22;7105;43.616;1.434;2023-04-25T14:37:37;16.00;99.90
14061;DHT22;7105;43.616;1.434;2023-04-25T14:40:03;16.20;99.90
14061;DHT22;7105;43.616;1.434;2023-04-25T14:42:30;16.30;99.90
14061;DHT22;7105;43.616;1.434;2023-04-25T14:44:57;16.00;99.90
14061;DHT22;7105;43.616;1.434;2023-04-25T14:47:22;16.00;99.90
14061;DHT22;7105;43.616;1.434;2023-04-25T14:49:48;16.10;99.90
14061;DHT22;7105;43.616;1.434;2023-04-25T14:52:20;16.50;99.90
14061;DHT22;7105;43.616;1.434;2023-04-25T14:54:46;16.70;99.90
14061;DHT22;7105;43.616;1.434;2023-04-25T14:57:12;16.10;99.90
14061;DHT22;7105;43.616;1.434;2023-04-25T14:59:38;16.10;99.90
14061;DHT22;7105;43.616;1.434;2023-04-25T15:02:04;15.80;99.90
14061;DHT22;7105;43.616;1.434;2023-04-25T15:04:30;15.80;99.90
14061;DHT22;7105;43.616;1.434;2023-04-25T15:06:55;15.70;99.90
14061;DHT22;7105;43.616;1.434;2023-04-25T15:09:21;15.50;99.90
14061;DHT22;7105;43.616;1.434;2023-04-25T15:11:49;15.30;99.90
14061;DHT22;7105;43.616;1.434;2023-04-25T15:14:16;15.40;99.90
14061;DHT22;7105;43.616;1.434;2023-04-25T15:16:42;15.60;99.90
14061;DHT22;7105;43.616;1.434;2023-04-25T15:19:08;15.80;99.90
14061;DHT22;7105;43.616;1.434;2023-04-25T15:21:33;15.90;99.90
14061;DHT22;7105;43.616;1.434;2023-04-25T15:23:59;15.70;99.90
14061;DHT22;7105;43.616;1.434;2023-04-25T15:26:26;15.50;99.90
14061;DHT22;7105;43.616;1.434;2023-04-25T15:28:52;15.60;99.90
14061;DHT22;7105;43.616;1.434;2023-04-25T15:31:18;15.60;99.90
14061;DHT22;7105;43.616;1.434;2023-04-25T15:33:43;15.50;99.90
14061;DHT22;7105;43.616;1.434;2023-04-25T15:36:09;15.50;99.90
14061;DHT22;7105;43.616;1.434;2023-04-25T15:38:36;15.60;99.90
14061;DHT22;7105;43.616;1.434;2023-04-25T15:41:01;15.50;99.90
14061;DHT22;7105;43.616;1.434;2023-04-25T15:43:27;15.50;99.90
14061;DHT22;7105;43.616;1.434;2023-04-25T15:45:54;15.00;99.90
14061;DHT22;7105;43.616;1.434;2023-04-25T15:48:20;15.00;99.90
14061;DHT22;7105;43.616;1.434;2023-04-25T15:50:46;15.20;99.90
14061;DHT22;7105;43.616;1.434;2023-04-25T15:53:12;15.20;99.90
14061;DHT22;7105;43.616;1.434;2023-04-25T15:55:38;15.20;99.90